Time;durP1;ratioP1;P1;durP2;ratioP2;P2;SDS_P1;SDS_P2;PMS_P1;PMS_P2;Temp;Humidity;BMP_temperature;BMP_pressure;BME280_temperature;BME280_humidity;BME280_pressure;Samples;Min_cycle;Max_cycle;Signal;HPM_P1;HPM_P2
2023/06/17 06:36:27;;;;;;;30.30;8.50;;;;;;;25.41;32.49;99285.16;6170530;22;20119;-88
2023/06/17 06:38:55;;;;;;;20.40;7.78;;;;;;;25.42;31.02;99286.75;6178509;23;20024;-87
2023/06/17 06:41:21;;;;;;;23.27;7.88;;;;;;;25.68;30.73;99330.88;6178772;23;20097;-85
2023/06/17 06:44:38;;;;;;;;;;;;;;;;;;;;;
2023/06/17 06:47:42;;;;;;;16.52;8.15;;;;;;;25.46;30.61;99302.31;6071911;23;20134;-85
2023/06/17 06:50:26;;;;;;;24.02;7.75;;;;;;;25.39;29.64;99279.19;6041044;23;20122;-86
2023/06/17 06:53:21;;;;;;;14.15;6.55;;;;;;;25.87;30.09;99335.13;6068012;23;20050;-86
2023/06/17 06:56:03;;;;;;;13.60;8.10;;;;;;;25.77;29.95;99297.59;6044981;23;20014;-87
2023/06/17 06:59:24;;;;;;;18.83;7.68;;;;;;;25.83;29.88;99292.38;6044507;23;20105;-86
2023/06/17 07:03:11;;;;;;;16.35;7.95;;;;;;;26.22;29.83;99335.91;6061952;23;20018;-85
2023/06/17 07:07:12;;;;;;;19.52;7.90;;;;;;;26.32;29.74;99335.00;6038829;23;20029;-84
2023/06/17 07:10:10;;;;;;;17.92;7.57;;;;;;;26.18;30.90;99304.34;6066064;23;20408;-85
2023/06/17 07:12:37;;;;;;;40.50;9.23;;;;;;;26.28;28.18;99334.25;6002256;23;20526;-87
2023/06/17 07:15:15;;;;;;;29.80;12.60;;;;;;;26.16;29.11;99312.41;6001506;23;20026;-85
2023/06/17 07:18:10;;;;;;;14.95;8.05;;;;;;;26.42;29.86;99314.47;5993016;23;20030;-87
2023/06/17 07:20:37;;;;;;;12.68;6.70;;;;;;;26.62;28.88;99325.03;6006047;23;20030;-86
2023/06/17 07:23:05;;;;;;;43.78;9.13;;;;;;;26.63;28.21;99315.41;5965953;23;20050;-86
2023/06/17 07:25:42;;;;;;;32.05;8.80;;;;;;;26.46;27.38;99304.00;6037173;23;20026;-85
2023/06/17 07:28:28;;;;;;;16.15;6.78;;;;;;;26.56;27.87;99305.09;6036557;23;20022;-85
2023/06/17 07:44:46;;;;;;;21.80;8.60;;;;;;;26.85;29.21;99307.47;6185500;22;20645;-95
2023/06/17 07:50:09;;;;;;;22.60;6.90;;;;;;;27.40;27.91;99323.06;6182064;23;20024;-92
2023/06/17 08:24:24;;;;;;;27.23;8.35;;;;;;;27.17;26.81;99321.03;6185419;23;20025;-93
2023/06/17 08:26:51;;;;;;;24.40;7.70;;;;;;;27.03;28.22;99327.63;6130704;23;20020;-86
2023/06/17 08:29:18;;;;;;;42.33;8.73;;;;;;;27.08;27.46;99331.97;6150949;23;20028;-85
2023/06/17 08:31:46;;;;;;;18.50;7.53;;;;;;;27.08;28.62;99337.56;6154582;23;20020;-84
2023/06/17 08:34:12;;;;;;;17.02;7.75;;;;;;;27.05;30.33;99339.25;6180491;23;20451;-85
2023/06/17 08:36:41;;;;;;;20.90;7.78;;;;;;;27.08;28.43;99349.59;6155310;23;20498;-85
2023/06/17 08:39:08;;;;;;;12.20;7.53;;;;;;;26.89;28.13;99322.25;6153988;23;20021;-85
2023/06/17 08:41:36;;;;;;;;;;;;;;;27.01;29.48;99338.47;6154605;23;20403;-85
2023/06/17 08:44:05;;;;;;;19.15;7.70;;;;;;;27.10;30.38;99329.53;6179281;23;19994;-84
2023/06/17 08:46:31;;;;;;;18.77;7.82;;;;;;;27.33;30.47;99343.63;6179591;23;20021;-87
2023/06/17 08:48:58;;;;;;;14.52;7.70;;;;;;;27.36;29.64;99316.72;6180689;23;20052;-85
2023/06/17 08:51:25;;;;;;;19.17;7.30;;;;;;;27.66;28.80;99335.44;6176950;23;20510;-88
2023/06/17 08:53:52;;;;;;;21.08;7.38;;;;;;;27.81;28.41;99333.19;6178414;23;20021;-86
2023/06/17 08:56:18;;;;;;;22.60;7.78;;;;;;;28.00;28.92;99334.44;6105538;23;20028;-86
2023/06/17 08:58:44;;;;;;;;;;;;;;;27.96;27.64;99333.72;6105283;23;20075;-87
2023/06/17 09:01:10;;;;;;;;;;;;;;;27.96;28.47;99328.91;6104070;23;19916;-85
2023/06/17 09:03:54;;;;;;;57.03;9.50;;;;;;;27.98;29.63;99340.50;6181195;23;19922;-84
2023/06/17 09:06:23;;;;;;;24.73;8.68;;;;;;;28.01;27.77;99325.59;6193926;23;20067;-85
2023/06/17 09:08:51;;;;;;;24.25;8.15;;;;;;;28.13;28.70;99338.19;6193715;23;20459;-83
2023/06/17 09:11:23;;;;;;;18.08;7.72;;;;;;;27.82;27.57;99304.69;6189477;23;20013;-86
2023/06/17 09:13:59;;;;;;;13.03;7.50;;;;;;;27.96;27.99;99322.50;6154320;23;20411;-85
2023/06/17 09:16:27;;;;;;;18.95;7.40;;;;;;;28.07;28.54;99337.91;6156391;23;20041;-89
2023/06/17 09:18:58;;;;;;;18.13;7.78;;;;;;;28.20;26.20;99332.44;6105128;23;20017;-85
2023/06/17 09:21:25;;;;;;;19.42;7.72;;;;;;;28.38;27.72;99322.81;6180923;23;20140;-83
2023/06/17 09:23:56;;;;;;;13.07;7.53;;;;;;;28.57;26.92;99328.47;6153336;23;20195;-83
2023/06/17 09:26:27;;;;;;;11.80;7.20;;;;;;;28.57;27.08;99338.91;6161858;23;20518;-86
2023/06/17 09:28:54;;;;;;;18.65;7.68;;;;;;;28.42;28.18;99301.09;6188090;23;20131;-84
2023/06/17 09:31:21;;;;;;;13.85;7.13;;;;;;;28.57;27.33;99320.03;6135934;23;20052;-85
2023/06/17 09:33:47;;;;;;;19.38;7.93;;;;;;;28.26;28.17;99296.97;6184008;23;20020;-86
2023/06/17 09:36:46;;;;;;;20.92;8.40;;;;;;;28.36;26.37;99331.72;6137530;23;20024;-88
2023/06/17 09:39:13;;;;;;;19.83;8.07;;;;;;;28.23;27.64;99320.31;6180503;23;20013;-84
2023/06/17 09:41:40;;;;;;;18.25;7.93;;;;;;;28.20;28.05;99326.81;6176793;23;20028;-84
2023/06/17 09:44:06;;;;;;;22.27;8.45;;;;;;;28.31;28.13;99335.84;6179070;23;20040;-87
2023/06/17 09:46:36;;;;;;;19.30;7.72;;;;;;;28.32;27.80;99314.13;6164046;23;20017;-87
2023/06/17 09:49:12;;;;;;;12.52;7.20;;;;;;;28.25;26.82;99291.78;6084380;23;20049;-87
2023/06/17 09:51:40;;;;;;;18.23;8.38;;;;;;;28.49;26.53;99320.63;6183112;23;20043;-85
2023/06/17 09:54:07;;;;;;;13.20;8.07;;;;;;;28.72;27.73;99305.66;6161564;23;20104;-86
2023/06/17 09:56:34;;;;;;;19.35;8.68;;;;;;;28.92;27.29;99309.19;6107711;23;20021;-87
2023/06/17 09:59:04;;;;;;;12.20;8.00;;;;;;;29.20;27.00;99319.00;6155883;23;20023;-86
2023/06/17 10:01:31;;;;;;;12.38;8.10;;;;;;;29.36;24.52;99311.78;6186441;23;20017;-86
2023/06/17 10:04:00;;;;;;;10.18;7.30;;;;;;;29.26;25.84;99297.53;6157722;23;20024;-87
2023/06/17 10:06:29;;;;;;;44.30;8.95;;;;;;;29.47;26.95;99313.09;6134108;23;20020;-86
2023/06/17 10:08:56;;;;;;;25.20;8.65;;;;;;;29.61;27.11;99302.72;6161425;23;20024;-86
2023/06/17 10:11:25;;;;;;;27.88;8.65;;;;;;;29.64;26.62;99319.53;6154073;23;20075;-87
2023/06/17 10:14:10;;;;;;;28.67;8.27;;;;;;;29.42;25.05;99321.28;6158566;23;20016;-86
2023/06/17 10:19:35;;;;;;;14.98;8.20;;;;;;;28.73;24.81;99279.09;6183882;23;19916;-87
2023/06/17 10:22:24;;;;;;;46.08;9.70;;;;;;;28.66;24.88;99296.16;6159379;23;20080;-88
2023/06/17 10:25:00;;;;;;;69.38;9.75;;;;;;;28.56;24.80;99320.47;6189593;23;20125;-88
2023/06/17 10:30:39;;;;;;;15.57;8.07;;;;;;;27.96;26.19;99269.88;6214615;23;20020;-87
2023/06/17 10:33:05;;;;;;;19.00;8.07;;;;;;;28.20;26.00;99314.78;6215959;23;20028;-87
2023/06/17 10:39:10;;;;;;;24.23;8.35;;;;;;;28.85;26.86;99328.28;6102342;23;20041;-87
2023/06/17 10:41:42;;;;;;;17.80;7.55;;;;;;;29.00;27.03;99324.69;6127689;23;20032;-87
2023/06/17 10:44:30;;;;;;;20.98;9.55;;;;;;;29.19;27.83;99302.56;6099293;23;20057;-86
2023/06/17 10:46:56;;;;;;;23.38;10.05;;;;;;;29.05;24.78;99306.50;6124592;23;20017;-84
2023/06/17 10:49:22;;;;;;;;;;;;;;;28.92;24.74;99328.09;6099251;23;20108;-87
2023/06/17 10:51:52;;;;;;;;;;;;;;;28.67;24.89;99312.56;6069689;23;19964;-87
2023/06/17 10:54:33;;;;;;;17.90;8.30;;;;;;;28.20;24.96;99279.03;6116988;23;19967;-86
2023/06/17 10:57:35;;;;;;;20.73;7.60;;;;;;;28.33;24.74;99313.69;6120057;23;20022;-87
2023/06/17 11:00:27;;;;;;;31.08;9.32;;;;;;;28.02;25.36;99258.94;6104425;23;20044;-86
2023/06/17 11:06:52;;;;;;;35.65;8.77;;;;;;;28.40;25.45;99286.69;6251107;22;20038;-85
2023/06/17 11:09:25;;;;;;;17.73;8.35;;;;;;;28.83;26.27;99300.56;6220293;22;20083;-89
2023/06/17 11:11:52;;;;;;;13.13;8.32;;;;;;;28.97;24.87;99305.88;6222219;22;20447;-85
2023/06/17 11:14:18;;;;;;;23.08;8.45;;;;;;;28.85;25.25;99292.50;6249342;22;20020;-85
2023/06/17 11:16:44;;;;;;;14.73;8.00;;;;;;;28.77;25.97;99307.94;6248183;22;20453;-87
2023/06/17 11:19:12;;;;;;;18.02;8.30;;;;;;;28.56;27.00;99314.84;6224752;22;20051;-84
2023/06/17 11:21:38;;;;;;;18.35;8.70;;;;;;;28.22;26.46;99282.19;6250817;22;20404;-86
2023/06/17 11:24:04;;;;;;;22.48;8.23;;;;;;;28.14;26.20;99294.81;6273721;22;20058;-86
2023/06/17 11:26:30;;;;;;;;;;;;;;;28.18;27.33;99314.41;6273702;22;20551;-86
2023/06/17 11:28:56;;;;;;;;;;;;;;;28.11;26.52;99318.16;6246787;22;19960;-87
2023/06/17 11:31:25;;;;;;;32.15;8.50;;;;;;;27.65;28.06;99258.03;6220944;22;19915;-87
2023/06/17 11:33:59;;;;;;;20.70;8.00;;;;;;;27.98;27.31;99314.41;6273613;22;20110;-86
2023/06/17 11:36:26;;;;;;;32.97;8.27;;;;;;;28.04;28.04;99324.72;6271406;22;20093;-87
2023/06/17 11:38:55;;;;;;;39.50;10.27;;;;;;;28.34;26.84;99315.28;6246748;22;20093;-85
2023/06/17 11:41:25;;;;;;;53.67;10.15;;;;;;;28.48;27.10;99268.44;6273633;22;20591;-87
2023/06/17 11:43:51;;;;;;;42.75;9.85;;;;;;;28.96;25.77;99297.84;6246527;22;20022;-89
2023/06/17 11:46:22;;;;;;;33.17;9.63;;;;;;;29.07;26.50;99301.22;6273263;22;20110;-87
2023/06/17 11:48:48;;;;;;;19.98;8.85;;;;;;;29.02;26.16;99313.03;6275160;22;20027;-87
2023/06/17 11:51:59;;;;;;;13.98;7.70;;;;;;;28.82;26.81;99320.72;6223818;22;20523;-87
2023/06/17 11:54:29;;;;;;;37.67;9.57;;;;;;;28.36;26.08;99280.31;6220923;22;20024;-84
2023/06/17 11:56:56;;;;;;;23.55;8.98;;;;;;;28.41;26.31;99265.75;6274378;22;20023;-89
2023/06/17 11:59:25;;;;;;;29.35;9.35;;;;;;;28.45;25.50;99253.22;6274342;22;20616;-88
2023/06/17 12:01:53;;;;;;;21.30;8.98;;;;;;;29.08;24.43;99319.72;6196354;22;20019;-86
2023/06/17 12:04:20;;;;;;;19.67;9.27;;;;;;;29.42;25.97;99312.84;6272726;22;20084;-85
2023/06/17 12:06:47;;;;;;;21.40;9.40;;;;;;;29.62;26.52;99293.03;6244938;22;20020;-84
2023/06/17 12:09:13;;;;;;;24.00;9.15;;;;;;;30.11;26.32;99321.88;6219620;22;20166;-84
2023/06/17 12:11:39;;;;;;;46.47;10.02;;;;;;;30.18;26.69;99290.66;6272438;22;20073;-84
2023/06/17 12:14:12;;;;;;;12.43;9.40;;;;;;;30.65;25.78;99318.28;6272121;22;20011;-86
2023/06/17 12:16:41;;;;;;;23.50;9.85;;;;;;;30.56;24.21;99320.19;6273001;22;20400;-85
2023/06/17 12:19:15;;;;;;;14.82;9.23;;;;;;;30.51;24.30;99303.81;6244476;22;20114;-89
2023/06/17 12:21:41;;;;;;;19.17;10.15;;;;;;;30.65;23.12;99321.09;6248680;22;20016;-87
2023/06/17 12:24:08;;;;;;;25.73;9.70;;;;;;;30.27;24.38;99317.44;6274749;22;20015;-89
2023/06/17 12:26:33;;;;;;;;;;;;;;;29.89;23.47;99326.50;6222103;22;20095;-86
2023/06/17 12:29:01;;;;;;;17.35;10.50;;;;;;;29.81;24.84;99320.28;6245121;22;19939;-85
2023/06/17 12:31:27;;;;;;;25.17;9.60;;;;;;;29.55;24.60;99293.19;6273218;22;20019;-88
2023/06/17 12:33:53;;;;;;;18.42;9.35;;;;;;;29.44;24.59;99316.00;6271767;22;20472;-87
2023/06/17 12:36:19;;;;;;;15.80;9.43;;;;;;;29.22;25.67;99310.13;6242440;22;20016;-86
2023/06/17 12:38:46;;;;;;;18.75;9.38;;;;;;;28.97;25.99;99293.78;6245109;22;20074;-86
2023/06/17 12:41:12;;;;;;;15.35;9.85;;;;;;;28.74;26.83;99295.56;6243945;22;20460;-83
2023/06/17 12:43:39;;;;;;;16.33;9.68;;;;;;;28.56;28.18;99300.78;6273054;22;20000;-89
2023/06/17 12:46:05;;;;;;;22.77;10.15;;;;;;;28.53;27.68;99265.09;6160330;23;20073;-89
2023/06/17 12:48:58;;;;;;;23.33;10.27;;;;;;;29.05;25.39;99306.50;6124470;23;20424;-91
2023/06/17 12:55:55;;;;;;;31.58;11.00;;;;;;;29.26;25.16;99262.94;6148070;23;20071;-88
2023/06/17 13:03:25;;;;;;;31.80;10.98;;;;;;;29.61;24.36;99308.34;6156108;23;20017;-91
2023/06/17 13:09:25;;;;;;;37.30;11.10;;;;;;;28.55;25.65;99248.59;6150682;23;20063;-89
2023/06/17 13:11:53;;;;;;;28.45;10.32;;;;;;;28.53;26.65;99267.91;6152427;23;20025;-91
2023/06/17 13:14:19;;;;;;;;;;;;;;;28.65;25.53;99300.19;6158270;23;20017;-94
2023/06/17 13:16:46;;;;;;;31.55;10.57;;;;;;;28.37;26.36;99277.06;6131830;23;20490;-91
2023/06/17 13:19:12;;;;;;;51.88;11.85;;;;;;;28.69;28.08;99284.81;6156077;23;20498;-91
2023/06/17 13:21:38;;;;;;;17.70;10.38;;;;;;;29.05;25.59;99281.19;6151254;23;20025;-90
2023/06/17 13:24:05;;;;;;;24.63;10.57;;;;;;;29.37;26.91;99273.94;6168243;23;20473;-93
2023/06/17 13:26:32;;;;;;;30.83;13.65;;;;;;;29.68;26.93;99275.16;6172101;23;20488;-92
2023/06/17 13:29:04;;;;;;;25.60;14.18;;;;;;;29.79;25.32;99269.22;6168591;23;20016;-92
2023/06/17 13:31:31;;;;;;;69.53;15.35;;;;;;;29.95;24.95;99274.78;6161207;23;20336;-87
2023/06/17 13:33:58;;;;;;;21.60;13.88;;;;;;;30.01;26.32;99280.69;6214652;23;20017;-87
2023/06/17 13:36:25;;;;;;;29.38;14.32;;;;;;;30.02;25.29;99253.28;6212250;23;20016;-87
2023/06/17 13:38:51;;;;;;;28.27;12.70;;;;;;;29.85;24.68;99241.28;6210663;23;20596;-88
2023/06/17 13:41:17;;;;;;;;;;;;;;;29.81;24.43;99283.66;6212832;23;20112;-88
2023/06/17 13:43:44;;;;;;;29.67;12.73;;;;;;;29.22;23.99;99259.44;6162481;23;19951;-90
2023/06/17 13:46:10;;;;;;;33.25;13.55;;;;;;;28.94;25.19;99238.41;6186854;23;20039;-88
2023/06/17 13:48:36;;;;;;;26.08;13.43;;;;;;;29.03;25.47;99272.38;6186386;23;20022;-91
2023/06/17 13:51:03;;;;;;;55.38;14.80;;;;;;;28.83;24.54;99238.66;6186104;23;20048;-89
2023/06/17 13:53:31;;;;;;;30.80;12.55;;;;;;;29.06;24.26;99259.44;6185562;23;20016;-89
2023/06/17 13:55:58;;;;;;;31.67;12.65;;;;;;;29.06;24.18;99273.53;6187489;23;20480;-89
2023/06/17 13:58:25;;;;;;;27.98;12.98;;;;;;;29.24;24.71;99274.66;6212018;23;20028;-87
2023/06/17 14:00:51;;;;;;;27.85;12.75;;;;;;;29.44;25.22;99271.75;6213888;23;20017;-89
2023/06/17 14:03:17;;;;;;;;;;;;;;;29.62;24.87;99281.75;6166662;23;20067;-90
2023/06/17 14:05:43;;;;;;;34.40;13.40;;;;;;;29.31;23.64;99261.66;6212408;23;20337;-91
2023/06/17 14:08:10;;;;;;;25.67;13.10;;;;;;;29.34;24.27;99283.25;6162995;23;20020;-89
2023/06/17 14:10:35;;;;;;;;;;;;;;;29.22;23.94;99276.34;6142723;23;20064;-91
2023/06/17 14:13:01;;;;;;;40.78;15.00;;;;;;;29.06;23.62;99270.72;6153568;23;19928;-90
2023/06/17 14:15:27;;;;;;;39.88;16.63;;;;;;;29.12;24.51;99266.94;6128260;23;20059;-91
2023/06/17 14:17:54;;;;;;;24.88;14.35;;;;;;;29.10;24.13;99251.72;6103116;23;20080;-88
2023/06/17 14:20:27;;;;;;;35.67;15.07;;;;;;;29.34;24.14;99260.72;6130788;23;20024;-94
2023/06/17 14:22:58;;;;;;;34.08;15.32;;;;;;;29.41;24.39;99272.63;6080269;23;20017;-89
2023/06/17 14:25:27;;;;;;;33.63;14.73;;;;;;;29.37;24.81;99276.75;6126784;23;20360;-87
2023/06/17 14:27:53;;;;;;;33.08;16.23;;;;;;;29.13;24.77;99251.63;6137726;23;20045;-89
2023/06/17 14:30:19;;;;;;;25.92;16.10;;;;;;;29.15;24.70;99282.94;6153380;23;20028;-88
2023/06/17 14:32:47;;;;;;;23.67;13.18;;;;;;;28.79;25.02;99264.06;6130353;23;20100;-89
2023/06/17 14:35:16;;;;;;;33.72;15.63;;;;;;;28.64;24.89;99256.41;6133451;23;20021;-90
2023/06/17 14:37:46;;;;;;;33.95;16.85;;;;;;;28.53;25.74;99245.41;6159599;23;20523;-88
2023/06/17 14:40:16;;;;;;;28.92;15.82;;;;;;;28.69;25.52;99284.81;6131295;23;20025;-91
2023/06/17 14:42:42;;;;;;;22.73;13.38;;;;;;;28.53;26.32;99265.09;6084281;23;20387;-89
2023/06/17 14:45:10;;;;;;;26.60;14.05;;;;;;;28.36;25.67;99257.81;6156606;23;20491;-89
2023/06/17 14:47:37;;;;;;;27.70;13.93;;;;;;;28.29;27.10;99287.66;6153305;23;20049;-90
2023/06/17 14:50:04;;;;;;;36.70;14.40;;;;;;;28.07;26.63;99255.63;6131388;23;20477;-90
2023/06/17 14:52:30;;;;;;;44.05;16.02;;;;;;;27.97;26.21;99251.00;6193110;23;20013;-90
2023/06/17 14:54:56;;;;;;;20.67;13.32;;;;;;;28.04;26.33;99287.38;6215546;23;20066;-90
2023/06/17 14:57:28;;;;;;;22.48;14.38;;;;;;;27.82;27.13;99259.72;6195498;23;20021;-91
2023/06/17 14:59:56;;;;;;;38.75;15.30;;;;;;;27.38;27.81;99242.09;6206088;23;20405;-86
2023/06/17 15:02:45;;;;;;;26.90;12.77;;;;;;;27.46;27.77;99281.25;6227588;23;20074;-88
2023/06/17 15:05:12;;;;;;;42.47;14.27;;;;;;;27.27;28.84;99275.16;6251002;23;20023;-88
2023/06/17 15:07:37;;;;;;;;;;;;;;;27.26;29.03;99279.19;6228269;23;20044;-90
2023/06/17 15:10:11;;;;;;;27.15;12.45;;;;;;;27.16;27.50;99288.59;6230544;23;19956;-90
2023/06/17 15:12:41;;;;;;;23.58;13.35;;;;;;;27.26;28.07;99292.44;6232750;23;20098;-89
2023/06/17 15:15:13;;;;;;;25.15;13.57;;;;;;;27.35;27.73;99259.78;6228466;23;20016;-91
2023/06/17 15:17:42;;;;;;;26.05;12.98;;;;;;;27.51;28.07;99241.44;6231856;23;20020;-90
2023/06/17 15:20:13;;;;;;;25.15;13.85;;;;;;;27.70;28.00;99263.16;6208112;23;20104;-87
2023/06/17 15:22:39;;;;;;;26.95;16.65;;;;;;;27.82;28.38;99289.84;6226466;23;20023;-84
2023/06/17 15:25:05;;;;;;;32.30;14.85;;;;;;;27.52;28.42;99248.66;6219690;23;20095;-85
2023/06/17 15:27:31;;;;;;;32.03;16.13;;;;;;;27.60;27.59;99295.81;6215403;23;20024;-86
2023/06/17 15:29:57;;;;;;;28.30;13.30;;;;;;;27.30;27.77;99270.72;6213411;23;20113;-84
2023/06/17 15:32:23;;;;;;;30.30;17.27;;;;;;;27.29;27.69;99298.00;6212274;23;20052;-85
2023/06/17 15:34:49;;;;;;;28.17;16.55;;;;;;;27.39;28.18;99301.84;6210806;23;20019;-85
2023/06/17 15:37:15;;;;;;;25.88;13.85;;;;;;;27.27;28.37;99266.75;6213827;23;20596;-87
2023/06/17 15:39:41;;;;;;;29.75;16.05;;;;;;;27.12;28.90;99259.78;6212734;23;20024;-86
2023/06/17 15:42:07;;;;;;;23.52;14.30;;;;;;;27.20;28.44;99306.16;6213049;23;20507;-87
2023/06/17 15:44:33;;;;;;;31.00;14.43;;;;;;;26.94;28.52;99277.66;6212779;23;20020;-85
2023/06/17 15:47:00;;;;;;;26.83;13.40;;;;;;;27.00;28.75;99302.44;6211765;23;20500;-85
2023/06/17 15:49:26;;;;;;;25.75;13.80;;;;;;;26.75;29.07;99306.41;6167332;23;20040;-87
2023/06/17 15:51:52;;;;;;;22.63;12.57;;;;;;;26.77;29.46;99308.81;6186280;23;20028;-87
2023/06/17 15:54:19;;;;;;;23.73;12.68;;;;;;;26.52;29.47;99276.28;6186807;23;20023;-86
2023/06/17 15:56:46;;;;;;;30.60;12.18;;;;;;;26.69;30.49;99300.50;6187364;23;20484;-84
2023/06/17 15:59:11;;;;;;;28.80;12.25;;;;;;;26.42;30.42;99275.22;6189515;23;20067;-90
2023/06/17 16:01:37;;;;;;;27.15;12.25;;;;;;;26.44;30.89;99292.41;6213770;23;20013;-84
2023/06/17 16:04:36;;;;;;;28.92;12.73;;;;;;;26.45;31.20;99301.59;6212502;23;20023;-85
2023/06/17 16:07:08;;;;;;;31.45;11.45;;;;;;;26.29;31.41;99301.41;6205514;23;20020;-84
2023/06/17 16:09:47;;;;;;;31.30;15.32;;;;;;;26.32;31.86;99312.56;6211324;23;20078;-82
2023/06/17 16:12:13;;;;;;;33.42;13.18;;;;;;;26.10;31.80;99289.66;6210618;23;20612;-85
2023/06/17 16:14:40;;;;;;;43.85;18.52;;;;;;;26.19;32.39;99305.94;6213274;23;20089;-87
2023/06/17 16:17:08;;;;;;;26.42;11.85;;;;;;;26.13;31.91;99307.63;6236975;23;20091;-87
2023/06/17 16:19:35;;;;;;;25.48;13.55;;;;;;;26.07;32.18;99310.09;6185094;23;20031;-86
2023/06/17 16:22:09;;;;;;;27.58;11.98;;;;;;;26.09;32.46;99318.06;6210085;23;20613;-85
2023/06/17 16:24:36;;;;;;;18.70;10.82;;;;;;;26.07;32.14;99315.69;6186047;23;20478;-84
2023/06/17 16:27:02;;;;;;;30.55;14.27;;;;;;;25.93;33.18;99305.44;6212083;23;20024;-84
2023/06/17 16:29:28;;;;;;;24.80;12.32;;;;;;;25.92;32.92;99317.06;6213046;23;20012;-85
2023/06/17 16:31:54;;;;;;;27.23;10.57;;;;;;;25.72;32.66;99288.84;6213707;23;20017;-87
2023/06/17 16:34:21;;;;;;;30.55;11.18;;;;;;;25.72;32.98;99294.44;6212304;23;20024;-88
2023/06/17 16:36:47;;;;;;;26.15;15.15;;;;;;;25.55;33.62;99271.03;6209373;23;20024;-86
2023/06/17 16:39:13;;;;;;;26.17;12.73;;;;;;;25.81;33.54;99311.59;6213457;23;20017;-86
2023/06/17 16:41:42;;;;;;;30.63;11.65;;;;;;;25.62;34.19;99303.75;6161475;23;20107;-87
2023/06/17 16:44:08;;;;;;;22.75;11.18;;;;;;;25.65;34.05;99314.91;6213647;23;20020;-88
2023/06/17 16:46:35;;;;;;;48.15;12.68;;;;;;;25.61;34.06;99319.75;6212360;23;20016;-92
2023/06/17 16:49:01;;;;;;;25.45;10.85;;;;;;;25.34;33.89;99297.22;6188280;23;20112;-90
2023/06/17 16:51:31;;;;;;;25.42;9.70;;;;;;;25.50;34.21;99325.47;6188612;23;20055;-87
2023/06/17 16:54:01;;;;;;;22.60;10.57;;;;;;;25.43;34.24;99327.50;6213351;23;20415;-86
2023/06/17 16:56:27;;;;;;;22.73;11.70;;;;;;;25.38;34.70;99311.97;6185629;23;20027;-88
2023/06/17 16:58:53;;;;;;;21.75;11.57;;;;;;;25.35;35.10;99323.97;6213506;23;20115;-88
2023/06/17 17:01:22;;;;;;;48.53;11.32;;;;;;;25.15;35.43;99300.56;6214267;23;20365;-88
2023/06/17 17:03:48;;;;;;;25.92;10.52;;;;;;;25.17;35.06;99310.16;6214866;23;20016;-86
2023/06/17 17:06:14;;;;;;;42.63;11.57;;;;;;;25.04;34.98;99292.25;6211982;23;20016;-86
2023/06/17 17:08:40;;;;;;;26.88;10.27;;;;;;;25.12;35.42;99315.38;6210045;23;20023;-87
2023/06/17 17:11:07;;;;;;;20.02;10.63;;;;;;;24.95;35.82;99294.69;6214815;23;20024;-89
2023/06/17 17:13:32;;;;;;;;;;;;;;;25.03;35.94;99330.63;6160975;23;20040;-88
2023/06/17 17:15:58;;;;;;;23.83;9.38;;;;;;;24.77;35.80;99308.81;6213054;23;19915;-88
2023/06/17 17:18:27;;;;;;;39.00;10.37;;;;;;;24.72;36.32;99300.84;6186924;23;20076;-87
2023/06/17 17:20:56;;;;;;;24.73;10.48;;;;;;;24.68;36.05;99305.69;6209246;23;20251;-88
2023/06/17 17:23:25;;;;;;;27.58;10.45;;;;;;;24.77;36.41;99320.00;6184778;23;20020;-87
2023/06/17 17:25:51;;;;;;;23.95;9.63;;;;;;;24.76;36.01;99326.78;6158849;23;20071;-85
2023/06/17 17:28:17;;;;;;;53.85;11.00;;;;;;;24.73;36.30;99327.59;6210397;23;20020;-84
2023/06/17 17:30:43;;;;;;;17.77;10.90;;;;;;;24.67;36.55;99330.03;6212829;23;20020;-84
2023/06/17 17:33:10;;;;;;;18.23;9.77;;;;;;;24.67;36.36;99338.44;6214739;23;20563;-87
2023/06/17 17:35:36;;;;;;;;;;;;;;;24.66;37.09;99355.59;6214989;23;20107;-90
2023/06/17 17:38:02;;;;;;;22.40;11.30;;;;;;;24.40;37.55;99332.53;6220025;23;19916;-89
2023/06/17 17:40:28;;;;;;;21.67;10.07;;;;;;;24.32;37.63;99337.34;6167406;23;20080;-87
2023/06/17 17:42:54;;;;;;;24.57;9.80;;;;;;;24.17;39.93;99321.03;6218479;23;20016;-87
2023/06/17 17:45:20;;;;;;;22.13;10.32;;;;;;;24.32;39.70;99373.66;6190843;23;20251;-88
2023/06/17 17:47:46;;;;;;;19.15;9.80;;;;;;;24.09;38.37;99339.84;6215808;23;20016;-89
2023/06/17 17:50:13;;;;;;;24.50;10.77;;;;;;;23.99;38.63;99337.88;6162987;23;20457;-90
2023/06/17 17:52:39;;;;;;;51.85;11.43;;;;;;;23.97;39.93;99368.97;6187837;23;20021;-87
2023/06/17 17:55:05;;;;;;;32.28;9.98;;;;;;;23.75;38.83;99343.09;6214507;23;20020;-87
2023/06/17 17:57:31;;;;;;;28.13;9.82;;;;;;;23.96;40.56;99380.56;6215893;23;20013;-88
2023/06/17 17:59:57;;;;;;;20.25;9.60;;;;;;;23.87;39.02;99375.38;6191235;23;20036;-87
2023/06/17 18:02:24;;;;;;;22.50;9.77;;;;;;;23.73;40.06;99361.44;6213680;23;20023;-86
2023/06/17 18:04:53;;;;;;;20.38;9.48;;;;;;;23.63;39.72;99355.44;6217306;23;20074;-88
2023/06/17 18:07:20;;;;;;;33.70;10.45;;;;;;;23.71;39.54;99380.56;6193857;23;20023;-87
2023/06/17 18:09:47;;;;;;;19.88;9.18;;;;;;;23.47;39.78;99357.84;6191680;23;20031;-86
2023/06/17 18:12:13;;;;;;;31.42;9.57;;;;;;;23.46;40.50;99364.63;6216842;23;20020;-87
2023/06/17 18:14:39;;;;;;;27.90;12.07;;;;;;;23.64;40.68;99401.72;6216047;23;20055;-87
2023/06/17 18:17:05;;;;;;;56.00;32.07;;;;;;;23.30;41.48;99353.88;6213299;23;20031;-85
2023/06/17 18:19:31;;;;;;;31.77;17.83;;;;;;;23.26;41.35;99363.44;6212438;23;20343;-88
2023/06/17 18:21:57;;;;;;;27.30;10.93;;;;;;;23.14;41.10;99367.38;6213327;23;20139;-86
2023/06/17 18:24:23;;;;;;;25.73;10.70;;;;;;;23.20;41.21;99391.69;6212910;23;20341;-91
2023/06/17 18:26:55;;;;;;;35.92;12.57;;;;;;;23.11;42.49;99408.03;6213786;23;20018;-89
2023/06/17 18:29:23;;;;;;;22.42;12.40;;;;;;;22.98;42.65;99406.81;6213914;23;20017;-85
2023/06/17 18:31:52;;;;;;;22.02;10.93;;;;;;;22.91;42.07;99390.84;6214648;23;20021;-90
2023/06/17 18:34:18;;;;;;;23.75;8.82;;;;;;;22.88;43.06;99422.28;6213112;23;20020;-86
2023/06/17 18:36:44;;;;;;;21.77;9.00;;;;;;;22.40;43.17;99377.91;6185558;23;20104;-84
2023/06/17 18:39:10;;;;;;;27.17;8.98;;;;;;;22.65;43.79;99425.41;6214068;23;20024;-88
2023/06/17 18:41:41;;;;;;;21.05;9.45;;;;;;;22.37;43.03;99387.03;6212413;23;20013;-86
2023/06/17 18:44:09;;;;;;;20.50;9.10;;;;;;;22.36;43.09;99404.16;6210298;23;20089;-85
2023/06/17 18:46:36;;;;;;;27.75;8.60;;;;;;;22.25;42.81;99401.31;6210303;23;20095;-87
2023/06/17 18:49:02;;;;;;;21.00;8.00;;;;;;;22.41;43.18;99429.63;6211262;23;20021;-85
2023/06/17 18:51:50;;;;;;;18.42;7.95;;;;;;;22.27;42.82;99419.22;6214954;23;20043;-87
2023/06/17 18:54:19;;;;;;;23.75;9.65;;;;;;;22.15;42.89;99424.28;6180840;23;20032;-86
2023/06/17 18:56:47;;;;;;;36.95;9.35;;;;;;;21.96;42.72;99412.25;6155307;23;20079;-83
2023/06/17 18:59:14;;;;;;;19.00;7.95;;;;;;;22.26;42.55;99464.19;6182666;23;20021;-84
2023/06/17 19:02:00;;;;;;;29.23;7.35;;;;;;;21.89;42.75;99416.97;6090658;23;20058;-87
2023/06/17 19:04:26;;;;;;;15.43;7.10;;;;;;;21.89;42.33;99440.03;6066281;23;20022;-87
2023/06/17 19:06:52;;;;;;;22.17;7.80;;;;;;;21.96;42.70;99456.78;6091993;23;20026;-83
2023/06/17 19:09:18;;;;;;;28.73;8.10;;;;;;;22.00;42.71;99465.97;6090399;23;20019;-86
2023/06/17 19:11:44;;;;;;;18.83;7.97;;;;;;;21.99;42.51;99471.94;6065873;23;20704;-83
2023/06/17 19:14:10;;;;;;;27.35;7.57;;;;;;;21.88;42.62;99460.69;6091275;23;20018;-83
2023/06/17 19:16:36;;;;;;;14.40;6.95;;;;;;;21.92;42.95;99471.84;6066974;23;20819;-85
2023/06/17 19:19:02;;;;;;;34.43;7.47;;;;;;;21.84;43.11;99476.56;6090424;23;20022;-83
2023/06/17 19:21:30;;;;;;;19.40;6.70;;;;;;;21.75;43.25;99473.31;6090448;23;20022;-82
2023/06/17 19:23:56;;;;;;;15.75;6.80;;;;;;;21.54;43.11;99451.66;6089695;23;20453;-87
2023/06/17 19:26:22;;;;;;;22.98;6.45;;;;;;;21.59;43.11;99473.56;6066534;23;20436;-86
2023/06/17 19:28:48;;;;;;;15.77;6.73;;;;;;;21.51;43.01;99469.91;6067158;23;20073;-84
2023/06/17 19:31:13;;;;;;;20.37;6.87;;;;;;;21.35;43.00;99458.22;6068512;23;20334;-88